sensor_id;sensor_type;location;lat;lon;timestamp;pressure;altitude;pressure_sealevel;temperature;humidity
46638;BME280;32365;46.938;7.390;2023-04-29T14:45:12;95078.81;;;25.67;36.81
46638;BME280;32365;46.938;7.390;2023-04-29T14:47:39;95072.13;;;25.36;36.08
46638;BME280;32365;46.938;7.390;2023-04-29T14:50:07;95077.91;;;24.37;38.35
46638;BME280;32365;46.938;7.390;2023-04-29T14:52:34;95079.19;;;23.80;40.80
46638;BME280;32365;46.938;7.390;2023-04-29T14:55:01;95079.88;;;23.68;40.46
46638;BME280;32365;46.938;7.390;2023-04-29T14:57:27;95080.09;;;22.98;41.71
46638;BME280;32365;46.938;7.390;2023-04-29T14:59:54;95082.03;;;22.71;42.62
46638;BME280;32365;46.938;7.390;2023-04-29T15:02:22;95086.16;;;22.89;43.62
46638;BME280;32365;46.938;7.390;2023-04-29T15:04:48;95092.69;;;22.13;44.62
46638;BME280;32365;46.938;7.390;2023-04-29T15:07:15;95085.41;;;22.19;43.10
46638;BME280;32365;46.938;7.390;2023-04-29T15:09:41;95088.34;;;21.19;45.67
46638;BME280;32365;46.938;7.390;2023-04-29T15:12:08;95085.31;;;21.03;46.61
46638;BME280;32365;46.938;7.390;2023-04-29T15:14:35;95091.72;;;20.65;49.81
46638;BME280;32365;46.938;7.390;2023-04-29T15:17:01;95087.00;;;21.62;45.43
46638;BME280;32365;46.938;7.390;2023-04-29T15:19:29;95082.09;;;21.37;44.54
46638;BME280;32365;46.938;7.390;2023-04-29T15:21:55;95094.31;;;21.74;46.63
46638;BME280;32365;46.938;7.390;2023-04-29T15:24:22;95090.81;;;21.15;47.90
46638;BME280;32365;46.938;7.390;2023-04-29T15:26:49;95084.53;;;21.74;46.08
46638;BME280;32365;46.938;7.390;2023-04-29T15:29:16;95081.56;;;22.42;45.44
46638;BME280;32365;46.938;7.390;2023-04-29T15:31:42;95086.16;;;24.78;38.56
46638;BME280;32365;46.938;7.390;2023-04-29T15:34:09;95076.50;;;26.31;36.06
46638;BME280;32365;46.938;7.390;2023-04-29T15:36:36;95079.84;;;27.29;33.51
46638;BME280;32365;46.938;7.390;2023-04-29T15:39:03;95084.03;;;26.29;36.06
46638;BME280;32365;46.938;7.390;2023-04-29T15:41:29;95093.03;;;26.00;35.17
46638;BME280;32365;46.938;7.390;2023-04-29T15:43:56;95088.41;;;25.01;37.10
46638;BME280;32365;46.938;7.390;2023-04-29T15:46:22;95089.91;;;24.77;36.61
46638;BME280;32365;46.938;7.390;2023-04-29T15:48:49;95087.38;;;24.59;36.25
46638;BME280;32365;46.938;7.390;2023-04-29T15:51:15;95086.75;;;23.13;40.33
46638;BME280;32365;46.938;7.390;2023-04-29T15:53:43;95089.78;;;22.58;43.67
46638;BME280;32365;46.938;7.390;2023-04-29T15:56:10;95088.84;;;22.28;45.53
46638;BME280;32365;46.938;7.390;2023-04-29T15:58:37;95095.31;;;22.92;45.24
46638;BME280;32365;46.938;7.390;2023-04-29T16:01:04;95090.56;;;22.77;46.51
46638;BME280;32365;46.938;7.390;2023-04-29T16:03:30;95095.31;;;22.92;46.07
46638;BME280;32365;46.938;7.390;2023-04-29T16:05:57;95093.88;;;23.21;43.04
46638;BME280;32365;46.938;7.390;2023-04-29T16:08:23;95099.84;;;22.21;43.82
46638;BME280;32365;46.938;7.390;2023-04-29T16:10:51;95091.25;;;21.80;44.75
46638;BME280;32365;46.938;7.390;2023-04-29T16:13:18;95096.53;;;21.98;45.73
46638;BME280;32365;46.938;7.390;2023-04-29T16:15:44;95098.19;;;21.04;49.05
46638;BME280;32365;46.938;7.390;2023-04-29T16:18:11;95103.00;;;20.66;51.26
46638;BME280;32365;46.938;7.390;2023-04-29T16:20:39;95112.28;;;20.26;51.96
46638;BME280;32365;46.938;7.390;2023-04-29T16:23:05;95107.34;;;20.11;52.24
46638;BME280;32365;46.938;7.390;2023-04-29T16:25:31;95102.59;;;19.57;55.86
46638;BME280;32365;46.938;7.390;2023-04-29T16:27:59;95103.66;;;19.42;56.27
46638;BME280;32365;46.938;7.390;2023-04-29T16:30:26;95102.34;;;19.12;59.78
46638;BME280;32365;46.938;7.390;2023-04-29T16:32:53;95102.75;;;19.19;60.39
46638;BME280;32365;46.938;7.390;2023-04-29T16:35:19;95100.97;;;19.14;59.86
46638;BME280;32365;46.938;7.390;2023-04-29T16:37:50;95096.53;;;19.15;59.58
46638;BME280;32365;46.938;7.390;2023-04-29T16:40:17;95101.09;;;18.90;61.82
46638;BME280;32365;46.938;7.390;2023-04-29T16:42:43;95098.41;;;18.95;61.96
46638;BME280;32365;46.938;7.390;2023-04-29T16:45:11;95103.72;;;18.90;62.96
46638;BME280;32365;46.938;7.390;2023-04-29T16:47:38;95103.97;;;19.07;61.24
46638;BME280;32365;46.938;7.390;2023-04-29T16:50:06;95104.16;;;18.97;58.92
46638;BME280;32365;46.938;7.390;2023-04-29T16:52:33;95101.81;;;19.84;55.41
46638;BME280;32365;46.938;7.390;2023-04-29T16:55:00;95106.78;;;19.72;57.09
46638;BME280;32365;46.938;7.390;2023-04-29T16:57:27;95103.03;;;19.17;57.76
46638;BME280;32365;46.938;7.390;2023-04-29T16:59:54;95113.91;;;19.11;57.87
46638;BME280;32365;46.938;7.390;2023-04-29T17:02:22;95109.41;;;19.44;58.31
46638;BME280;32365;46.938;7.390;2023-04-29T17:04:49;95111.16;;;19.35;57.02
46638;BME280;32365;46.938;7.390;2023-04-29T17:07:17;95110.22;;;19.12;58.61
46638;BME280;32365;46.938;7.390;2023-04-29T17:09:44;95112.28;;;19.15;55.17
46638;BME280;32365;46.938;7.390;2023-04-29T17:12:12;95103.72;;;18.90;57.41
46638;BME280;32365;46.938;7.390;2023-04-29T17:14:39;95108.25;;;19.03;57.86
46638;BME280;32365;46.938;7.390;2023-04-29T17:17:05;95114.47;;;19.07;56.90
46638;BME280;32365;46.938;7.390;2023-04-29T17:19:33;95115.81;;;19.52;57.10
46638;BME280;32365;46.938;7.390;2023-04-29T17:22:00;95117.63;;;19.23;55.40
46638;BME280;32365;46.938;7.390;2023-04-29T17:24:26;95113.16;;;19.24;55.71
46638;BME280;32365;46.938;7.390;2023-04-29T17:26:53;95116.84;;;19.23;50.51
46638;BME280;32365;46.938;7.390;2023-04-29T17:29:20;95125.66;;;18.61;52.77
46638;BME280;32365;46.938;7.390;2023-04-29T17:31:46;95128.41;;;18.31;54.10
46638;BME280;32365;46.938;7.390;2023-04-29T17:34:19;95126.41;;;18.04;53.73
46638;BME280;32365;46.938;7.390;2023-04-29T17:36:49;95131.25;;;18.16;53.05
46638;BME280;32365;46.938;7.390;2023-04-29T17:39:16;95132.22;;;18.01;51.91
46638;BME280;32365;46.938;7.390;2023-04-29T17:41:43;95126.19;;;17.76;52.82
46638;BME280;32365;46.938;7.390;2023-04-29T17:44:10;95134.03;;;17.76;54.00
46638;BME280;32365;46.938;7.390;2023-04-29T17:46:37;95142.72;;;17.47;54.74
46638;BME280;32365;46.938;7.390;2023-04-29T17:49:04;95136.34;;;17.29;55.43
46638;BME280;32365;46.938;7.390;2023-04-29T17:51:31;95138.56;;;17.17;55.63
46638;BME280;32365;46.938;7.390;2023-04-29T17:54:00;95136.72;;;17.17;55.04
46638;BME280;32365;46.938;7.390;2023-04-29T17:56:28;95141.34;;;16.91;56.03
46638;BME280;32365;46.938;7.390;2023-04-29T17:58:56;95143.44;;;16.94;56.26
46638;BME280;32365;46.938;7.390;2023-04-29T18:01:23;95145.75;;;17.01;55.28
46638;BME280;32365;46.938;7.390;2023-04-29T18:03:49;95141.69;;;17.19;54.73
46638;BME280;32365;46.938;7.390;2023-04-29T18:06:16;95151.00;;;16.96;54.36
46638;BME280;32365;46.938;7.390;2023-04-29T18:08:42;95152.53;;;17.02;54.23
46638;BME280;32365;46.938;7.390;2023-04-29T18:11:11;95149.03;;;16.77;54.38
46638;BME280;32365;46.938;7.390;2023-04-29T18:13:38;95154.31;;;16.67;56.64
46638;BME280;32365;46.938;7.390;2023-04-29T18:16:05;95154.19;;;16.48;57.53
46638;BME280;32365;46.938;7.390;2023-04-29T18:18:32;95152.13;;;16.39;56.77
46638;BME280;32365;46.938;7.390;2023-04-29T18:20:58;95152.59;;;16.52;55.74
46638;BME280;32365;46.938;7.390;2023-04-29T18:23:25;95152.16;;;16.34;57.51
46638;BME280;32365;46.938;7.390;2023-04-29T18:25:51;95148.06;;;16.18;58.20
46638;BME280;32365;46.938;7.390;2023-04-29T18:28:19;95152.38;;;16.43;57.56
46638;BME280;32365;46.938;7.390;2023-04-29T18:30:46;95149.69;;;16.08;59.54
46638;BME280;32365;46.938;7.390;2023-04-29T18:33:13;95150.00;;;15.91;60.64
46638;BME280;32365;46.938;7.390;2023-04-29T18:35:39;95158.63;;;15.81;61.07
46638;BME280;32365;46.938;7.390;2023-04-29T18:38:06;95155.00;;;15.72;63.16
46638;BME280;32365;46.938;7.390;2023-04-29T18:40:34;95152.09;;;15.79;62.56
46638;BME280;32365;46.938;7.390;2023-04-29T18:43:01;95148.16;;;15.92;62.75
46638;BME280;32365;46.938;7.390;2023-04-29T18:45:29;95147.34;;;16.02;62.94
46638;BME280;32365;46.938;7.390;2023-04-29T18:47:55;95152.13;;;15.63;64.78
46638;BME280;32365;46.938;7.390;2023-04-29T18:50:22;95161.53;;;15.59;66.57
46638;BME280;32365;46.938;7.390;2023-04-29T18:52:48;95162.06;;;15.61;67.27
46638;BME280;32365;46.938;7.390;2023-04-29T18:55:15;95161.31;;;15.50;68.13
46638;BME280;32365;46.938;7.390;2023-04-29T18:57:42;95163.13;;;15.50;69.22
46638;BME280;32365;46.938;7.390;2023-04-29T19:00:09;95159.22;;;15.42;69.19
46638;BME280;32365;46.938;7.390;2023-04-29T19:02:37;95163.94;;;15.35;71.30
46638;BME280;32365;46.938;7.390;2023-04-29T19:05:04;95176.44;;;15.43;71.79
46638;BME280;32365;46.938;7.390;2023-04-29T19:07:35;95171.22;;;15.43;71.89
46638;BME280;32365;46.938;7.390;2023-04-29T19:10:01;95171.50;;;15.42;73.00
46638;BME280;32365;46.938;7.390;2023-04-29T19:12:29;95176.44;;;15.48;71.99
46638;BME280;32365;46.938;7.390;2023-04-29T19:14:56;95180.09;;;15.42;72.89
46638;BME280;32365;46.938;7.390;2023-04-29T19:17:23;95176.72;;;15.42;73.23
46638;BME280;32365;46.938;7.390;2023-04-29T19:19:51;95180.88;;;15.17;73.29
46638;BME280;32365;46.938;7.390;2023-04-29T19:22:18;95184.28;;;15.38;73.17
46638;BME280;32365;46.938;7.390;2023-04-29T19:24:45;95187.13;;;15.36;72.97
46638;BME280;32365;46.938;7.390;2023-04-29T19:27:12;95193.91;;;15.37;73.58
46638;BME280;32365;46.938;7.390;2023-04-29T19:29:38;95190.28;;;15.33;73.61
46638;BME280;32365;46.938;7.390;2023-04-29T19:32:05;95196.78;;;15.05;75.08
46638;BME280;32365;46.938;7.390;2023-04-29T19:34:31;95194.97;;;15.00;74.88
46638;BME280;32365;46.938;7.390;2023-04-29T19:36:59;95198.34;;;14.85;75.53
46638;BME280;32365;46.938;7.390;2023-04-29T19:39:25;95197.28;;;14.86;75.55
46638;BME280;32365;46.938;7.390;2023-04-29T19:41:52;95209.03;;;14.89;75.22
46638;BME280;32365;46.938;7.390;2023-04-29T19:44:20;95200.91;;;14.80;76.35
46638;BME280;32365;46.938;7.390;2023-04-29T19:46:48;95210.25;;;14.55;77.52
46638;BME280;32365;46.938;7.390;2023-04-29T19:49:15;95205.25;;;14.43;77.70
46638;BME280;32365;46.938;7.390;2023-04-29T19:51:42;95203.41;;;14.44;77.73
46638;BME280;32365;46.938;7.390;2023-04-29T19:54:10;95213.03;;;14.38;78.17
46638;BME280;32365;46.938;7.390;2023-04-29T19:56:36;95209.69;;;14.43;78.09
46638;BME280;32365;46.938;7.390;2023-04-29T19:59:03;95204.44;;;14.38;78.00
46638;BME280;32365;46.938;7.390;2023-04-29T20:01:30;95207.31;;;14.36;78.15
46638;BME280;32365;46.938;7.390;2023-04-29T20:03:56;95215.84;;;14.16;78.73
46638;BME280;32365;46.938;7.390;2023-04-29T20:06:23;95214.22;;;14.10;78.26
46638;BME280;32365;46.938;7.390;2023-04-29T20:08:51;95217.94;;;14.19;78.41
46638;BME280;32365;46.938;7.390;2023-04-29T20:11:19;95208.31;;;14.25;77.64
46638;BME280;32365;46.938;7.390;2023-04-29T20:13:46;95212.03;;;13.86;79.42
46638;BME280;32365;46.938;7.390;2023-04-29T20:16:13;95206.50;;;13.72;80.13
46638;BME280;32365;46.938;7.390;2023-04-29T20:18:40;95212.94;;;13.64;81.08
46638;BME280;32365;46.938;7.390;2023-04-29T20:21:08;95211.66;;;13.67;80.36
46638;BME280;32365;46.938;7.390;2023-04-29T20:23:34;95211.56;;;13.51;81.12
46638;BME280;32365;46.938;7.390;2023-04-29T20:26:01;95214.19;;;13.57;80.62
46638;BME280;32365;46.938;7.390;2023-04-29T20:28:29;95220.16;;;13.52;81.18
46638;BME280;32365;46.938;7.390;2023-04-29T20:30:56;95214.09;;;13.41;80.42
46638;BME280;32365;46.938;7.390;2023-04-29T20:33:23;95218.69;;;13.34;81.20
46638;BME280;32365;46.938;7.390;2023-04-29T20:35:50;95221.34;;;13.39;80.68
46638;BME280;32365;46.938;7.390;2023-04-29T20:38:17;95216.63;;;13.36;80.76
46638;BME280;32365;46.938;7.390;2023-04-29T20:40:44;95213.53;;;13.39;80.59
46638;BME280;32365;46.938;7.390;2023-04-29T20:43:11;95223.88;;;13.29;80.62
46638;BME280;32365;46.938;7.390;2023-04-29T20:45:39;95224.91;;;13.33;81.03
46638;BME280;32365;46.938;7.390;2023-04-29T20:48:05;95221.69;;;13.20;81.66
46638;BME280;32365;46.938;7.390;2023-04-29T20:50:32;95211.75;;;13.12;81.32
46638;BME280;32365;46.938;7.390;2023-04-29T20:52:59;95226.34;;;13.13;81.13
